sensor_id;sensor_type;location;lat;lon;timestamp;P1;durP1;ratioP1;P2;durP2;ratioP2
27642;SDS011;15053;48.618;10.024;2023-05-07T00:00:18;5.65;;;3.47;;
27642;SDS011;15053;48.618;10.024;2023-05-07T00:02:45;4.05;;;3.17;;
27642;SDS011;15053;48.618;10.024;2023-05-07T00:05:12;4.88;;;3.40;;
27642;SDS011;15053;48.618;10.024;2023-05-07T00:07:40;4.43;;;3.42;;
27642;SDS011;15053;48.618;10.024;2023-05-07T00:10:06;4.60;;;3.80;;
27642;SDS011;15053;48.618;10.024;2023-05-07T00:12:34;3.95;;;3.55;;
27642;SDS011;15053;48.618;10.024;2023-05-07T00:15:03;6.28;;;3.65;;
27642;SDS011;15053;48.618;10.024;2023-05-07T00:17:32;6.00;;;3.87;;
27642;SDS011;15053;48.618;10.024;2023-05-07T00:19:59;4.45;;;3.25;;
27642;SDS011;15053;48.618;10.024;2023-05-07T00:22:25;5.88;;;4.10;;
27642;SDS011;15053;48.618;10.024;2023-05-07T00:24:52;4.53;;;4.05;;
27642;SDS011;15053;48.618;10.024;2023-05-07T00:27:19;5.03;;;3.60;;
27642;SDS011;15053;48.618;10.024;2023-05-07T00:29:45;5.30;;;3.55;;
27642;SDS011;15053;48.618;10.024;2023-05-07T00:32:12;6.32;;;3.83;;
27642;SDS011;15053;48.618;10.024;2023-05-07T00:34:38;4.68;;;3.55;;
27642;SDS011;15053;48.618;10.024;2023-05-07T00:37:05;4.72;;;3.60;;
27642;SDS011;15053;48.618;10.024;2023-05-07T00:39:33;4.35;;;3.78;;
27642;SDS011;15053;48.618;10.024;2023-05-07T00:42:01;6.72;;;3.80;;
27642;SDS011;15053;48.618;10.024;2023-05-07T00:44:28;5.55;;;4.40;;
27642;SDS011;15053;48.618;10.024;2023-05-07T00:46:56;5.55;;;3.90;;
27642;SDS011;15053;48.618;10.024;2023-05-07T00:49:25;7.03;;;4.22;;
27642;SDS011;15053;48.618;10.024;2023-05-07T00:52:01;7.95;;;5.07;;
27642;SDS011;15053;48.618;10.024;2023-05-07T00:54:28;8.70;;;4.30;;
27642;SDS011;15053;48.618;10.024;2023-05-07T00:56:54;5.80;;;4.68;;
27642;SDS011;15053;48.618;10.024;2023-05-07T00:59:21;7.55;;;4.40;;
27642;SDS011;15053;48.618;10.024;2023-05-07T01:01:48;7.97;;;5.25;;
27642;SDS011;15053;48.618;10.024;2023-05-07T01:04:15;7.82;;;4.78;;
27642;SDS011;15053;48.618;10.024;2023-05-07T01:06:42;7.72;;;5.47;;
27642;SDS011;15053;48.618;10.024;2023-05-07T01:09:11;9.32;;;6.00;;
27642;SDS011;15053;48.618;10.024;2023-05-07T01:11:39;9.98;;;5.50;;
27642;SDS011;15053;48.618;10.024;2023-05-07T01:14:06;7.82;;;5.90;;
27642;SDS011;15053;48.618;10.024;2023-05-07T01:16:35;11.95;;;6.65;;
27642;SDS011;15053;48.618;10.024;2023-05-07T01:19:02;6.95;;;5.80;;
27642;SDS011;15053;48.618;10.024;2023-05-07T01:21:29;7.00;;;5.32;;
27642;SDS011;15053;48.618;10.024;2023-05-07T01:23:59;7.10;;;5.57;;
27642;SDS011;15053;48.618;10.024;2023-05-07T01:26:26;7.90;;;5.80;;
27642;SDS011;15053;48.618;10.024;2023-05-07T01:28:52;7.60;;;6.30;;
27642;SDS011;15053;48.618;10.024;2023-05-07T01:31:19;7.40;;;5.05;;
27642;SDS011;15053;48.618;10.024;2023-05-07T01:33:46;7.18;;;4.90;;
27642;SDS011;15053;48.618;10.024;2023-05-07T01:36:17;7.85;;;4.70;;
27642;SDS011;15053;48.618;10.024;2023-05-07T01:38:44;6.20;;;4.55;;
27642;SDS011;15053;48.618;10.024;2023-05-07T01:41:12;6.35;;;4.70;;
27642;SDS011;15053;48.618;10.024;2023-05-07T01:43:40;5.55;;;4.95;;
27642;SDS011;15053;48.618;10.024;2023-05-07T01:46:08;7.43;;;4.90;;
27642;SDS011;15053;48.618;10.024;2023-05-07T01:48:36;8.20;;;5.55;;
27642;SDS011;15053;48.618;10.024;2023-05-07T01:51:04;7.40;;;4.38;;
27642;SDS011;15053;48.618;10.024;2023-05-07T01:53:35;8.45;;;4.97;;
27642;SDS011;15053;48.618;10.024;2023-05-07T01:56:03;8.82;;;4.53;;
27642;SDS011;15053;48.618;10.024;2023-05-07T01:58:30;6.93;;;4.85;;
27642;SDS011;15053;48.618;10.024;2023-05-07T02:00:56;9.10;;;5.05;;
27642;SDS011;15053;48.618;10.024;2023-05-07T02:03:23;5.75;;;4.65;;
27642;SDS011;15053;48.618;10.024;2023-05-07T02:05:58;6.15;;;4.82;;
27642;SDS011;15053;48.618;10.024;2023-05-07T02:08:31;6.55;;;4.93;;
27642;SDS011;15053;48.618;10.024;2023-05-07T02:10:58;6.68;;;4.72;;
27642;SDS011;15053;48.618;10.024;2023-05-07T02:13:26;5.95;;;4.80;;
27642;SDS011;15053;48.618;10.024;2023-05-07T02:15:56;9.10;;;5.05;;
27642;SDS011;15053;48.618;10.024;2023-05-07T02:18:23;7.70;;;4.70;;
27642;SDS011;15053;48.618;10.024;2023-05-07T02:20:50;9.55;;;4.65;;
27642;SDS011;15053;48.618;10.024;2023-05-07T02:23:16;5.88;;;4.57;;
27642;SDS011;15053;48.618;10.024;2023-05-07T02:25:43;7.72;;;5.40;;
27642;SDS011;15053;48.618;10.024;2023-05-07T02:28:10;9.35;;;4.82;;
27642;SDS011;15053;48.618;10.024;2023-05-07T02:30:43;8.25;;;4.80;;
27642;SDS011;15053;48.618;10.024;2023-05-07T02:33:10;6.40;;;4.85;;
27642;SDS011;15053;48.618;10.024;2023-05-07T02:35:39;7.20;;;4.82;;
27642;SDS011;15053;48.618;10.024;2023-05-07T02:38:05;6.30;;;4.55;;
27642;SDS011;15053;48.618;10.024;2023-05-07T02:40:33;5.38;;;4.47;;
27642;SDS011;15053;48.618;10.024;2023-05-07T02:43:01;5.43;;;4.65;;
27642;SDS011;15053;48.618;10.024;2023-05-07T02:45:27;6.03;;;4.40;;
27642;SDS011;15053;48.618;10.024;2023-05-07T02:47:54;7.57;;;5.30;;
27642;SDS011;15053;48.618;10.024;2023-05-07T02:50:21;6.72;;;4.72;;
27642;SDS011;15053;48.618;10.024;2023-05-07T02:52:47;7.18;;;5.35;;
27642;SDS011;15053;48.618;10.024;2023-05-07T02:55:14;10.60;;;5.68;;
27642;SDS011;15053;48.618;10.024;2023-05-07T02:57:41;10.80;;;5.80;;
27642;SDS011;15053;48.618;10.024;2023-05-07T03:00:14;10.10;;;5.68;;
27642;SDS011;15053;48.618;10.024;2023-05-07T03:02:50;9.88;;;6.28;;
27642;SDS011;15053;48.618;10.024;2023-05-07T03:05:16;13.23;;;7.95;;
27642;SDS011;15053;48.618;10.024;2023-05-07T03:07:43;9.13;;;6.78;;
27642;SDS011;15053;48.618;10.024;2023-05-07T03:10:12;8.32;;;5.85;;
27642;SDS011;15053;48.618;10.024;2023-05-07T03:12:39;7.18;;;4.70;;
27642;SDS011;15053;48.618;10.024;2023-05-07T03:15:08;5.57;;;4.90;;
27642;SDS011;15053;48.618;10.024;2023-05-07T03:17:35;8.73;;;4.95;;
27642;SDS011;15053;48.618;10.024;2023-05-07T03:20:02;5.28;;;4.50;;
27642;SDS011;15053;48.618;10.024;2023-05-07T03:22:29;7.93;;;5.03;;
27642;SDS011;15053;48.618;10.024;2023-05-07T03:24:55;7.70;;;5.07;;
27642;SDS011;15053;48.618;10.024;2023-05-07T03:27:22;7.18;;;4.90;;
27642;SDS011;15053;48.618;10.024;2023-05-07T03:29:51;8.35;;;4.35;;
27642;SDS011;15053;48.618;10.024;2023-05-07T03:32:19;6.18;;;4.38;;
27642;SDS011;15053;48.618;10.024;2023-05-07T03:34:45;7.22;;;4.50;;
27642;SDS011;15053;48.618;10.024;2023-05-07T03:37:12;5.43;;;4.25;;
27642;SDS011;15053;48.618;10.024;2023-05-07T03:39:40;7.15;;;3.95;;
27642;SDS011;15053;48.618;10.024;2023-05-07T03:42:07;5.85;;;4.30;;
27642;SDS011;15053;48.618;10.024;2023-05-07T03:44:34;7.53;;;4.53;;
27642;SDS011;15053;48.618;10.024;2023-05-07T03:47:02;4.80;;;4.15;;
27642;SDS011;15053;48.618;10.024;2023-05-07T03:49:30;6.40;;;4.20;;
27642;SDS011;15053;48.618;10.024;2023-05-07T03:51:57;4.97;;;4.47;;
27642;SDS011;15053;48.618;10.024;2023-05-07T03:54:23;6.53;;;4.43;;
27642;SDS011;15053;48.618;10.024;2023-05-07T03:56:50;5.38;;;4.30;;
27642;SDS011;15053;48.618;10.024;2023-05-07T03:59:16;6.75;;;4.18;;
27642;SDS011;15053;48.618;10.024;2023-05-07T04:01:45;6.30;;;4.05;;
27642;SDS011;15053;48.618;10.024;2023-05-07T04:04:15;5.25;;;4.47;;
27642;SDS011;15053;48.618;10.024;2023-05-07T04:06:42;4.88;;;4.25;;
27642;SDS011;15053;48.618;10.024;2023-05-07T04:09:09;6.78;;;4.40;;
27642;SDS011;15053;48.618;10.024;2023-05-07T04:11:37;4.97;;;4.30;;
27642;SDS011;15053;48.618;10.024;2023-05-07T04:14:08;6.13;;;4.30;;
27642;SDS011;15053;48.618;10.024;2023-05-07T04:16:35;6.72;;;4.55;;
27642;SDS011;15053;48.618;10.024;2023-05-07T04:19:02;5.53;;;4.53;;
27642;SDS011;15053;48.618;10.024;2023-05-07T04:21:29;7.53;;;4.10;;
27642;SDS011;15053;48.618;10.024;2023-05-07T04:23:57;5.57;;;4.88;;
27642;SDS011;15053;48.618;10.024;2023-05-07T04:26:23;5.80;;;4.53;;
27642;SDS011;15053;48.618;10.024;2023-05-07T04:28:50;9.50;;;5.65;;
27642;SDS011;15053;48.618;10.024;2023-05-07T04:31:17;7.72;;;4.80;;
27642;SDS011;15053;48.618;10.024;2023-05-07T04:33:48;5.90;;;4.72;;
27642;SDS011;15053;48.618;10.024;2023-05-07T04:36:14;6.18;;;5.18;;
27642;SDS011;15053;48.618;10.024;2023-05-07T04:38:48;8.00;;;5.03;;
27642;SDS011;15053;48.618;10.024;2023-05-07T04:41:16;6.15;;;5.47;;
27642;SDS011;15053;48.618;10.024;2023-05-07T04:43:43;9.10;;;5.72;;
27642;SDS011;15053;48.618;10.024;2023-05-07T04:46:13;7.13;;;4.88;;
27642;SDS011;15053;48.618;10.024;2023-05-07T04:48:40;7.78;;;5.68;;
27642;SDS011;15053;48.618;10.024;2023-05-07T04:51:07;6.78;;;5.05;;
27642;SDS011;15053;48.618;10.024;2023-05-07T04:53:33;9.48;;;5.35;;
27642;SDS011;15053;48.618;10.024;2023-05-07T04:56:00;6.50;;;5.43;;
27642;SDS011;15053;48.618;10.024;2023-05-07T04:58:36;7.40;;;5.38;;
27642;SDS011;15053;48.618;10.024;2023-05-07T05:01:03;6.75;;;4.60;;
27642;SDS011;15053;48.618;10.024;2023-05-07T05:03:30;7.15;;;4.70;;
27642;SDS011;15053;48.618;10.024;2023-05-07T05:05:58;7.70;;;5.13;;
27642;SDS011;15053;48.618;10.024;2023-05-07T05:08:29;9.75;;;5.15;;
27642;SDS011;15053;48.618;10.024;2023-05-07T05:10:56;6.70;;;5.40;;
27642;SDS011;15053;48.618;10.024;2023-05-07T05:13:23;6.50;;;5.10;;
27642;SDS011;15053;48.618;10.024;2023-05-07T05:15:50;5.47;;;4.90;;
27642;SDS011;15053;48.618;10.024;2023-05-07T05:18:18;6.63;;;4.80;;
27642;SDS011;15053;48.618;10.024;2023-05-07T05:20:44;6.40;;;4.82;;
27642;SDS011;15053;48.618;10.024;2023-05-07T05:23:11;7.80;;;4.97;;
27642;SDS011;15053;48.618;10.024;2023-05-07T05:25:38;9.60;;;6.18;;
27642;SDS011;15053;48.618;10.024;2023-05-07T05:28:09;7.13;;;5.87;;
27642;SDS011;15053;48.618;10.024;2023-05-07T05:30:35;6.82;;;5.68;;
27642;SDS011;15053;48.618;10.024;2023-05-07T05:33:02;7.95;;;5.72;;
27642;SDS011;15053;48.618;10.024;2023-05-07T05:35:29;7.68;;;5.60;;
27642;SDS011;15053;48.618;10.024;2023-05-07T05:37:56;6.78;;;5.63;;
27642;SDS011;15053;48.618;10.024;2023-05-07T05:40:23;5.57;;;4.97;;
27642;SDS011;15053;48.618;10.024;2023-05-07T05:42:50;6.30;;;5.25;;
27642;SDS011;15053;48.618;10.024;2023-05-07T05:45:17;6.95;;;4.75;;
27642;SDS011;15053;48.618;10.024;2023-05-07T05:47:44;7.28;;;5.00;;
27642;SDS011;15053;48.618;10.024;2023-05-07T05:50:11;6.35;;;4.90;;
27642;SDS011;15053;48.618;10.024;2023-05-07T05:52:38;6.03;;;5.43;;
27642;SDS011;15053;48.618;10.024;2023-05-07T05:55:07;5.78;;;4.93;;
27642;SDS011;15053;48.618;10.024;2023-05-07T05:57:35;8.40;;;5.28;;
27642;SDS011;15053;48.618;10.024;2023-05-07T06:00:02;8.82;;;5.32;;
27642;SDS011;15053;48.618;10.024;2023-05-07T06:02:31;6.70;;;5.05;;
27642;SDS011;15053;48.618;10.024;2023-05-07T06:04:58;7.05;;;4.93;;
27642;SDS011;15053;48.618;10.024;2023-05-07T06:07:25;6.57;;;5.25;;
27642;SDS011;15053;48.618;10.024;2023-05-07T06:09:52;6.70;;;4.97;;
27642;SDS011;15053;48.618;10.024;2023-05-07T06:12:20;7.72;;;5.38;;
27642;SDS011;15053;48.618;10.024;2023-05-07T06:14:47;8.32;;;5.85;;
27642;SDS011;15053;48.618;10.024;2023-05-07T06:17:16;8.95;;;5.70;;
27642;SDS011;15053;48.618;10.024;2023-05-07T06:19:46;7.00;;;5.97;;
27642;SDS011;15053;48.618;10.024;2023-05-07T06:22:15;6.63;;;5.25;;
27642;SDS011;15053;48.618;10.024;2023-05-07T06:24:42;5.82;;;5.22;;
27642;SDS011;15053;48.618;10.024;2023-05-07T06:27:08;8.10;;;5.68;;
27642;SDS011;15053;48.618;10.024;2023-05-07T06:29:36;7.88;;;5.68;;
27642;SDS011;15053;48.618;10.024;2023-05-07T06:32:10;7.05;;;6.15;;
27642;SDS011;15053;48.618;10.024;2023-05-07T06:34:39;8.30;;;6.43;;
27642;SDS011;15053;48.618;10.024;2023-05-07T06:37:06;9.77;;;6.78;;
27642;SDS011;15053;48.618;10.024;2023-05-07T06:39:47;7.53;;;6.40;;
27642;SDS011;15053;48.618;10.024;2023-05-07T06:42:13;6.95;;;5.57;;
27642;SDS011;15053;48.618;10.024;2023-05-07T06:44:42;8.30;;;5.90;;
27642;SDS011;15053;48.618;10.024;2023-05-07T06:47:12;8.18;;;6.28;;
27642;SDS011;15053;48.618;10.024;2023-05-07T06:49:42;10.63;;;6.55;;
27642;SDS011;15053;48.618;10.024;2023-05-07T06:52:11;9.20;;;6.45;;
27642;SDS011;15053;48.618;10.024;2023-05-07T06:54:37;8.13;;;6.25;;
27642;SDS011;15053;48.618;10.024;2023-05-07T06:57:04;11.32;;;5.85;;
27642;SDS011;15053;48.618;10.024;2023-05-07T06:59:31;9.35;;;6.13;;
27642;SDS011;15053;48.618;10.024;2023-05-07T07:01:58;7.57;;;6.03;;
27642;SDS011;15053;48.618;10.024;2023-05-07T07:04:25;7.00;;;6.20;;
27642;SDS011;15053;48.618;10.024;2023-05-07T07:06:59;11.07;;;6.97;;
27642;SDS011;15053;48.618;10.024;2023-05-07T07:09:27;7.50;;;6.50;;
27642;SDS011;15053;48.618;10.024;2023-05-07T07:11:53;7.65;;;6.93;;
27642;SDS011;15053;48.618;10.024;2023-05-07T07:14:21;10.27;;;7.47;;
27642;SDS011;15053;48.618;10.024;2023-05-07T07:16:50;7.88;;;6.95;;
27642;SDS011;15053;48.618;10.024;2023-05-07T07:19:19;11.27;;;8.48;;
27642;SDS011;15053;48.618;10.024;2023-05-07T07:21:49;8.98;;;7.40;;
27642;SDS011;15053;48.618;10.024;2023-05-07T07:24:16;8.18;;;7.32;;
27642;SDS011;15053;48.618;10.024;2023-05-07T07:26:50;9.20;;;6.65;;
27642;SDS011;15053;48.618;10.024;2023-05-07T07:29:17;8.65;;;7.00;;
27642;SDS011;15053;48.618;10.024;2023-05-07T07:31:45;10.60;;;7.55;;
27642;SDS011;15053;48.618;10.024;2023-05-07T07:34:16;9.75;;;6.45;;
27642;SDS011;15053;48.618;10.024;2023-05-07T07:36:42;10.18;;;7.55;;
27642;SDS011;15053;48.618;10.024;2023-05-07T07:39:15;7.13;;;6.32;;
27642;SDS011;15053;48.618;10.024;2023-05-07T07:41:43;6.68;;;5.88;;
27642;SDS011;15053;48.618;10.024;2023-05-07T07:44:10;9.15;;;4.97;;
27642;SDS011;15053;48.618;10.024;2023-05-07T07:46:44;6.78;;;6.07;;
27642;SDS011;15053;48.618;10.024;2023-05-07T07:49:11;8.80;;;6.75;;
27642;SDS011;15053;48.618;10.024;2023-05-07T07:51:38;6.38;;;5.40;;
27642;SDS011;15053;48.618;10.024;2023-05-07T07:54:04;11.82;;;5.88;;
27642;SDS011;15053;48.618;10.024;2023-05-07T07:56:33;6.07;;;5.13;;
27642;SDS011;15053;48.618;10.024;2023-05-07T07:59:01;6.50;;;4.63;;
27642;SDS011;15053;48.618;10.024;2023-05-07T08:01:29;8.40;;;4.78;;
27642;SDS011;15053;48.618;10.024;2023-05-07T08:03:57;5.70;;;4.40;;
27642;SDS011;15053;48.618;10.024;2023-05-07T08:06:31;8.63;;;4.05;;
27642;SDS011;15053;48.618;10.024;2023-05-07T08:08:58;4.85;;;3.90;;
27642;SDS011;15053;48.618;10.024;2023-05-07T08:11:24;5.93;;;4.30;;
27642;SDS011;15053;48.618;10.024;2023-05-07T08:13:53;5.30;;;4.53;;
27642;SDS011;15053;48.618;10.024;2023-05-07T08:16:20;9.13;;;4.03;;
27642;SDS011;15053;48.618;10.024;2023-05-07T08:18:50;5.03;;;4.25;;
27642;SDS011;15053;48.618;10.024;2023-05-07T08:21:17;6.90;;;4.55;;
27642;SDS011;15053;48.618;10.024;2023-05-07T08:23:43;6.00;;;4.90;;
27642;SDS011;15053;48.618;10.024;2023-05-07T08:26:10;5.95;;;4.55;;
27642;SDS011;15053;48.618;10.024;2023-05-07T08:28:37;5.93;;;4.75;;
27642;SDS011;15053;48.618;10.024;2023-05-07T08:31:06;6.35;;;4.70;;
27642;SDS011;15053;48.618;10.024;2023-05-07T08:33:36;9.52;;;4.82;;
27642;SDS011;15053;48.618;10.024;2023-05-07T08:36:03;5.43;;;4.47;;
27642;SDS011;15053;48.618;10.024;2023-05-07T08:38:31;6.72;;;4.30;;
27642;SDS011;15053;48.618;10.024;2023-05-07T08:40:57;13.98;;;8.75;;
27642;SDS011;15053;48.618;10.024;2023-05-07T08:43:26;5.78;;;3.80;;
27642;SDS011;15053;48.618;10.024;2023-05-07T08:45:54;5.35;;;3.80;;
27642;SDS011;15053;48.618;10.024;2023-05-07T08:48:26;4.13;;;3.70;;
27642;SDS011;15053;48.618;10.024;2023-05-07T08:51:03;4.95;;;3.75;;
27642;SDS011;15053;48.618;10.024;2023-05-07T08:53:30;3.97;;;3.58;;
27642;SDS011;15053;48.618;10.024;2023-05-07T08:55:57;7.60;;;3.75;;
27642;SDS011;15053;48.618;10.024;2023-05-07T08:58:25;10.48;;;4.25;;
27642;SDS011;15053;48.618;10.024;2023-05-07T09:00:51;5.38;;;4.10;;
27642;SDS011;15053;48.618;10.024;2023-05-07T09:03:20;4.22;;;3.70;;
27642;SDS011;15053;48.618;10.024;2023-05-07T09:05:50;5.55;;;3.88;;
27642;SDS011;15053;48.618;10.024;2023-05-07T09:08:18;4.70;;;3.88;;
27642;SDS011;15053;48.618;10.024;2023-05-07T09:10:51;7.00;;;4.60;;
27642;SDS011;15053;48.618;10.024;2023-05-07T09:13:18;7.53;;;4.10;;
27642;SDS011;15053;48.618;10.024;2023-05-07T09:15:45;6.88;;;4.75;;
27642;SDS011;15053;48.618;10.024;2023-05-07T09:18:12;6.25;;;4.47;;
27642;SDS011;15053;48.618;10.024;2023-05-07T09:20:43;5.28;;;4.78;;
27642;SDS011;15053;48.618;10.024;2023-05-07T09:23:10;9.07;;;5.47;;
27642;SDS011;15053;48.618;10.024;2023-05-07T09:25:37;6.47;;;5.30;;
27642;SDS011;15053;48.618;10.024;2023-05-07T09:28:11;5.75;;;4.15;;
27642;SDS011;15053;48.618;10.024;2023-05-07T09:30:37;7.00;;;5.18;;
27642;SDS011;15053;48.618;10.024;2023-05-07T09:33:07;5.70;;;4.45;;
27642;SDS011;15053;48.618;10.024;2023-05-07T09:35:37;6.17;;;5.57;;
27642;SDS011;15053;48.618;10.024;2023-05-07T09:38:09;8.05;;;5.57;;
27642;SDS011;15053;48.618;10.024;2023-05-07T09:40:36;4.93;;;4.47;;
27642;SDS011;15053;48.618;10.024;2023-05-07T09:43:11;5.68;;;5.05;;
27642;SDS011;15053;48.618;10.024;2023-05-07T09:45:48;6.55;;;4.75;;
27642;SDS011;15053;48.618;10.024;2023-05-07T09:48:19;5.85;;;4.18;;
27642;SDS011;15053;48.618;10.024;2023-05-07T09:50:49;5.15;;;4.38;;
27642;SDS011;15053;48.618;10.024;2023-05-07T09:53:22;4.28;;;3.88;;
27642;SDS011;15053;48.618;10.024;2023-05-07T09:55:50;5.15;;;4.63;;
27642;SDS011;15053;48.618;10.024;2023-05-07T09:58:19;7.50;;;4.13;;
27642;SDS011;15053;48.618;10.024;2023-05-07T10:00:50;7.93;;;2.97;;
27642;SDS011;15053;48.618;10.024;2023-05-07T10:03:18;3.70;;;2.78;;
27642;SDS011;15053;48.618;10.024;2023-05-07T10:05:55;4.68;;;2.88;;
27642;SDS011;15053;48.618;10.024;2023-05-07T10:08:23;3.72;;;3.08;;
27642;SDS011;15053;48.618;10.024;2023-05-07T10:10:53;4.13;;;3.67;;
27642;SDS011;15053;48.618;10.024;2023-05-07T10:13:23;4.70;;;3.45;;
27642;SDS011;15053;48.618;10.024;2023-05-07T10:15:54;3.63;;;3.10;;
27642;SDS011;15053;48.618;10.024;2023-05-07T10:18:24;3.85;;;2.70;;
27642;SDS011;15053;48.618;10.024;2023-05-07T10:21:07;3.72;;;2.85;;
27642;SDS011;15053;48.618;10.024;2023-05-07T10:23:35;4.57;;;3.20;;
27642;SDS011;15053;48.618;10.024;2023-05-07T10:26:02;5.72;;;3.50;;
27642;SDS011;15053;48.618;10.024;2023-05-07T10:28:34;5.80;;;3.60;;
27642;SDS011;15053;48.618;10.024;2023-05-07T10:33:51;5.80;;;3.83;;
27642;SDS011;15053;48.618;10.024;2023-05-07T10:36:22;6.13;;;4.18;;
27642;SDS011;15053;48.618;10.024;2023-05-07T10:38:51;3.25;;;2.95;;
27642;SDS011;15053;48.618;10.024;2023-05-07T10:41:19;5.00;;;3.72;;
27642;SDS011;15053;48.618;10.024;2023-05-07T10:43:48;4.57;;;3.83;;
27642;SDS011;15053;48.618;10.024;2023-05-07T10:46:23;6.15;;;3.78;;
27642;SDS011;15053;48.618;10.024;2023-05-07T10:51:33;4.68;;;3.80;;
27642;SDS011;15053;48.618;10.024;2023-05-07T10:56:45;5.60;;;4.18;;
27642;SDS011;15053;48.618;10.024;2023-05-07T11:02:02;5.45;;;4.75;;
27642;SDS011;15053;48.618;10.024;2023-05-07T11:08:07;5.40;;;3.60;;
27642;SDS011;15053;48.618;10.024;2023-05-07T11:10:56;3.33;;;2.47;;
27642;SDS011;15053;48.618;10.024;2023-05-07T11:13:47;3.08;;;2.30;;
27642;SDS011;15053;48.618;10.024;2023-05-07T11:16:38;2.47;;;1.80;;
27642;SDS011;15053;48.618;10.024;2023-05-07T11:19:47;3.08;;;2.00;;
27642;SDS011;15053;48.618;10.024;2023-05-07T11:25:26;3.53;;;2.63;;
27642;SDS011;15053;48.618;10.024;2023-05-07T11:28:06;5.35;;;2.40;;
27642;SDS011;15053;48.618;10.024;2023-05-07T11:30:42;2.30;;;2.10;;
27642;SDS011;15053;48.618;10.024;2023-05-07T11:33:11;2.90;;;2.20;;
27642;SDS011;15053;48.618;10.024;2023-05-07T11:35:39;4.85;;;2.40;;
27642;SDS011;15053;48.618;10.024;2023-05-07T11:38:11;2.95;;;2.20;;
27642;SDS011;15053;48.618;10.024;2023-05-07T11:40:50;5.20;;;3.13;;
27642;SDS011;15053;48.618;10.024;2023-05-07T11:43:17;5.20;;;2.42;;
27642;SDS011;15053;48.618;10.024;2023-05-07T11:45:44;7.32;;;2.70;;
27642;SDS011;15053;48.618;10.024;2023-05-07T11:48:14;5.78;;;2.83;;
27642;SDS011;15053;48.618;10.024;2023-05-07T11:50:52;4.75;;;3.10;;
27642;SDS011;15053;48.618;10.024;2023-05-07T11:53:20;6.00;;;3.22;;
27642;SDS011;15053;48.618;10.024;2023-05-07T11:55:54;4.63;;;3.20;;
27642;SDS011;15053;48.618;10.024;2023-05-07T11:58:22;4.55;;;3.00;;
27642;SDS011;15053;48.618;10.024;2023-05-07T12:00:53;4.70;;;2.65;;
27642;SDS011;15053;48.618;10.024;2023-05-07T12:03:20;3.60;;;2.85;;
27642;SDS011;15053;48.618;10.024;2023-05-07T12:05:47;5.10;;;3.13;;
27642;SDS011;15053;48.618;10.024;2023-05-07T12:08:17;5.95;;;3.30;;
27642;SDS011;15053;48.618;10.024;2023-05-07T12:10:46;7.90;;;3.63;;
27642;SDS011;15053;48.618;10.024;2023-05-07T12:13:15;4.15;;;2.70;;
27642;SDS011;15053;48.618;10.024;2023-05-07T12:15:42;5.28;;;3.00;;
27642;SDS011;15053;48.618;10.024;2023-05-07T12:18:10;3.80;;;2.90;;
27642;SDS011;15053;48.618;10.024;2023-05-07T12:20:37;5.28;;;3.38;;
27642;SDS011;15053;48.618;10.024;2023-05-07T12:23:05;7.45;;;3.17;;
27642;SDS011;15053;48.618;10.024;2023-05-07T12:25:35;4.05;;;3.65;;
27642;SDS011;15053;48.618;10.024;2023-05-07T12:28:03;4.68;;;3.67;;
27642;SDS011;15053;48.618;10.024;2023-05-07T12:30:31;5.82;;;3.17;;
27642;SDS011;15053;48.618;10.024;2023-05-07T12:33:02;5.05;;;3.40;;
27642;SDS011;15053;48.618;10.024;2023-05-07T12:35:29;5.32;;;3.45;;
27642;SDS011;15053;48.618;10.024;2023-05-07T12:37:57;3.38;;;3.05;;
27642;SDS011;15053;48.618;10.024;2023-05-07T12:40:38;10.63;;;3.10;;
27642;SDS011;15053;48.618;10.024;2023-05-07T12:43:06;4.07;;;3.35;;
27642;SDS011;15053;48.618;10.024;2023-05-07T12:45:36;5.82;;;3.17;;
27642;SDS011;15053;48.618;10.024;2023-05-07T12:48:07;3.88;;;2.92;;
27642;SDS011;15053;48.618;10.024;2023-05-07T12:50:36;4.30;;;3.05;;
27642;SDS011;15053;48.618;10.024;2023-05-07T12:53:03;4.90;;;2.95;;
27642;SDS011;15053;48.618;10.024;2023-05-07T12:55:41;3.55;;;2.97;;
27642;SDS011;15053;48.618;10.024;2023-05-07T12:58:14;5.47;;;3.88;;
27642;SDS011;15053;48.618;10.024;2023-05-07T13:00:42;3.90;;;3.22;;
27642;SDS011;15053;48.618;10.024;2023-05-07T13:03:10;5.22;;;3.47;;
27642;SDS011;15053;48.618;10.024;2023-05-07T13:05:37;4.63;;;3.38;;
27642;SDS011;15053;48.618;10.024;2023-05-07T13:08:03;6.32;;;3.20;;
27642;SDS011;15053;48.618;10.024;2023-05-07T13:10:30;5.03;;;3.95;;
27642;SDS011;15053;48.618;10.024;2023-05-07T13:12:56;11.20;;;7.18;;
27642;SDS011;15053;48.618;10.024;2023-05-07T13:15:23;15.63;;;9.27;;
27642;SDS011;15053;48.618;10.024;2023-05-07T13:17:49;26.02;;;15.70;;
27642;SDS011;15053;48.618;10.024;2023-05-07T13:20:16;13.48;;;9.13;;
27642;SDS011;15053;48.618;10.024;2023-05-07T13:22:43;9.73;;;6.28;;
27642;SDS011;15053;48.618;10.024;2023-05-07T13:25:09;17.15;;;11.57;;
27642;SDS011;15053;48.618;10.024;2023-05-07T13:27:36;9.50;;;6.68;;
27642;SDS011;15053;48.618;10.024;2023-05-07T13:30:03;17.77;;;11.55;;
27642;SDS011;15053;48.618;10.024;2023-05-07T13:32:31;23.98;;;14.60;;
27642;SDS011;15053;48.618;10.024;2023-05-07T13:34:58;12.48;;;8.00;;
27642;SDS011;15053;48.618;10.024;2023-05-07T13:37:24;15.75;;;9.27;;
27642;SDS011;15053;48.618;10.024;2023-05-07T13:39:51;17.00;;;10.00;;
27642;SDS011;15053;48.618;10.024;2023-05-07T13:42:17;17.17;;;11.18;;
27642;SDS011;15053;48.618;10.024;2023-05-07T13:44:44;4.70;;;4.05;;
27642;SDS011;15053;48.618;10.024;2023-05-07T13:47:10;9.75;;;6.13;;
27642;SDS011;15053;48.618;10.024;2023-05-07T13:49:37;11.70;;;7.93;;
27642;SDS011;15053;48.618;10.024;2023-05-07T13:52:03;5.68;;;4.60;;
27642;SDS011;15053;48.618;10.024;2023-05-07T13:54:30;14.73;;;8.77;;
27642;SDS011;15053;48.618;10.024;2023-05-07T13:56:56;8.15;;;3.88;;
27642;SDS011;15053;48.618;10.024;2023-05-07T13:59:23;7.00;;;4.78;;
27642;SDS011;15053;48.618;10.024;2023-05-07T14:01:49;8.73;;;5.80;;
27642;SDS011;15053;48.618;10.024;2023-05-07T14:04:16;12.68;;;9.45;;
27642;SDS011;15053;48.618;10.024;2023-05-07T14:06:42;48.70;;;28.67;;
27642;SDS011;15053;48.618;10.024;2023-05-07T14:09:09;34.60;;;22.70;;
27642;SDS011;15053;48.618;10.024;2023-05-07T14:11:38;14.65;;;9.95;;
27642;SDS011;15053;48.618;10.024;2023-05-07T14:14:05;10.73;;;7.82;;
27642;SDS011;15053;48.618;10.024;2023-05-07T14:16:32;3.85;;;3.28;;
27642;SDS011;15053;48.618;10.024;2023-05-07T14:18:58;3.70;;;3.30;;
27642;SDS011;15053;48.618;10.024;2023-05-07T14:21:25;3.90;;;3.15;;
27642;SDS011;15053;48.618;10.024;2023-05-07T14:23:51;3.17;;;2.75;;
27642;SDS011;15053;48.618;10.024;2023-05-07T14:26:18;6.43;;;3.03;;
27642;SDS011;15053;48.618;10.024;2023-05-07T14:28:45;4.90;;;3.13;;
27642;SDS011;15053;48.618;10.024;2023-05-07T14:31:12;5.75;;;3.30;;
27642;SDS011;15053;48.618;10.024;2023-05-07T14:33:39;3.65;;;3.03;;
27642;SDS011;15053;48.618;10.024;2023-05-07T14:36:07;5.22;;;3.10;;
27642;SDS011;15053;48.618;10.024;2023-05-07T14:38:34;4.45;;;3.58;;
27642;SDS011;15053;48.618;10.024;2023-05-07T14:41:00;4.00;;;3.30;;
27642;SDS011;15053;48.618;10.024;2023-05-07T14:43:27;3.70;;;3.20;;
27642;SDS011;15053;48.618;10.024;2023-05-07T14:45:53;3.47;;;2.92;;
27642;SDS011;15053;48.618;10.024;2023-05-07T14:48:20;3.65;;;2.90;;
27642;SDS011;15053;48.618;10.024;2023-05-07T14:50:47;3.33;;;2.97;;
27642;SDS011;15053;48.618;10.024;2023-05-07T14:53:15;3.65;;;2.75;;
27642;SDS011;15053;48.618;10.024;2023-05-07T14:55:41;3.75;;;2.88;;
27642;SDS011;15053;48.618;10.024;2023-05-07T14:58:08;3.45;;;3.15;;